Time;durP1;ratioP1;P1;durP2;ratioP2;P2;SDS_P1;SDS_P2;PMS_P1;PMS_P2;Temp;Humidity;BMP_temperature;BMP_pressure;BME280_temperature;BME280_humidity;BME280_pressure;Samples;Min_cycle;Max_cycle;Signal;HPM_P1;HPM_P2
2022/01/11 00:01:06;;;;;;;98.83;49.07;;;-0.30;99.90;;;;;;5053097;28;20807;-68
2022/01/11 00:03:31;;;;;;;100.63;48.73;;;-0.30;99.90;;;;;;5052480;28;20242;-68
2022/01/11 00:06:10;;;;;;;103.00;52.87;;;-0.30;99.90;;;;;;5053531;28;20242;-68
2022/01/11 00:08:39;;;;;;;96.77;50.53;;;-0.40;99.90;;;;;;5034467;28;20212;-69
2022/01/11 00:11:04;;;;;;;94.83;47.90;;;-0.50;99.90;;;;;;5035105;28;20839;-68
2022/01/11 00:13:32;;;;;;;96.73;49.77;;;-0.50;99.90;;;;;;5052346;28;20239;-69
2022/01/11 00:15:57;;;;;;;97.77;49.83;;;-0.50;99.90;;;;;;5052940;28;20195;-70
2022/01/11 00:18:23;;;;;;;104.23;51.27;;;-0.50;99.90;;;;;;5034115;28;20183;-69
2022/01/11 00:20:48;;;;;;;103.40;52.53;;;-0.50;99.90;;;;;;5053132;28;20259;-69
2022/01/11 00:25:42;;;;;;;109.17;49.97;;;-0.50;99.90;;;;;;5051841;28;20307;-69
2022/01/11 00:28:10;;;;;;;102.60;49.80;;;-0.50;99.90;;;;;;5034300;28;20708;-69
2022/01/11 00:30:38;;;;;;;104.77;51.17;;;-0.40;99.90;;;;;;5052234;28;20192;-68
2022/01/11 00:33:09;;;;;;;106.67;50.87;;;-0.50;99.90;;;;;;5052884;28;20184;-69
2022/01/11 00:35:44;;;;;;;93.47;50.10;;;-0.50;99.90;;;;;;5052183;28;20319;-69
2022/01/11 00:38:16;;;;;;;104.37;48.90;;;-0.50;99.90;;;;;;5052047;28;20214;-69
2022/01/11 00:40:45;;;;;;;98.73;51.00;;;-0.70;99.90;;;;;;5052245;28;20239;-68
2022/01/11 00:43:11;;;;;;;106.83;50.03;;;-0.70;99.90;;;;;;5051917;28;20235;-71
2022/01/11 00:45:36;;;;;;;106.13;51.53;;;-0.80;99.90;;;;;;5034056;28;20278;-68
2022/01/11 00:48:02;;;;;;;99.70;49.83;;;-0.90;99.90;;;;;;5052354;28;20279;-69
2022/01/11 00:50:28;;;;;;;96.83;49.57;;;-0.80;99.90;;;;;;5051714;28;20250;-69
2022/01/11 00:52:53;;;;;;;112.60;53.90;;;-0.90;99.90;;;;;;5034027;28;20734;-69
2022/01/11 00:55:19;;;;;;;110.23;51.90;;;-0.90;99.90;;;;;;5034027;28;20654;-69
2022/01/11 00:57:45;;;;;;;108.67;52.93;;;-0.90;99.90;;;;;;5051458;28;20203;-70
2022/01/11 01:00:11;;;;;;;109.67;53.20;;;-0.80;99.90;;;;;;5052399;28;20179;-70
2022/01/11 01:02:38;;;;;;;110.30;51.70;;;-0.80;99.90;;;;;;5051574;28;20295;-70
2022/01/11 01:05:04;;;;;;;107.43;52.97;;;-0.70;99.90;;;;;;5051717;28;20204;-69
2022/01/11 01:07:30;;;;;;;101.70;52.53;;;-0.70;99.90;;;;;;5033659;28;20207;-69
2022/01/11 01:10:10;;;;;;;114.10;55.43;;;-0.80;99.90;;;;;;5051245;28;20206;-69
2022/01/11 01:12:36;;;;;;;112.67;55.80;;;-1.00;99.90;;;;;;5051468;28;20187;-69
2022/01/11 01:15:02;;;;;;;118.77;56.40;;;-1.00;99.90;;;;;;5034122;28;20191;-69
2022/01/11 01:17:28;;;;;;;106.53;53.93;;;-1.10;99.90;;;;;;5051483;28;20292;-69
2022/01/11 01:19:53;;;;;;;118.27;56.27;;;-1.10;99.90;;;;;;5033189;28;20239;-70
2022/01/11 01:22:19;;;;;;;118.70;54.90;;;-1.10;99.90;;;;;;5033916;28;20203;-69
2022/01/11 01:24:45;;;;;;;116.00;53.57;;;-1.10;99.90;;;;;;5041198;28;20226;-69
2022/01/11 01:27:11;;;;;;;116.23;55.37;;;-1.10;99.90;;;;;;5033962;28;20180;-69
2022/01/11 01:29:38;;;;;;;115.70;53.00;;;-1.00;99.90;;;;;;5032943;28;20217;-70
2022/01/11 01:32:04;;;;;;;115.50;55.70;;;-1.10;99.90;;;;;;5051621;28;20214;-69
2022/01/11 01:34:30;;;;;;;107.67;52.93;;;-1.10;99.90;;;;;;5050864;28;20212;-69
2022/01/11 01:36:55;;;;;;;122.13;56.23;;;-1.00;99.90;;;;;;5050355;28;20201;-69
2022/01/11 01:39:20;;;;;;;105.10;52.77;;;-1.10;99.90;;;;;;5050557;28;20176;-69
2022/01/11 01:41:47;;;;;;;104.53;51.40;;;-1.00;99.90;;;;;;5033807;28;20214;-69
2022/01/11 01:44:13;;;;;;;113.80;51.27;;;-1.10;99.90;;;;;;5032854;28;20307;-69
2022/01/11 01:46:40;;;;;;;108.83;52.17;;;-1.30;99.90;;;;;;5051154;28;20676;-69
2022/01/11 01:49:06;;;;;;;108.90;51.77;;;-1.30;99.90;;;;;;5050584;28;20302;-71
2022/01/11 01:51:32;;;;;;;108.97;52.47;;;-1.20;99.90;;;;;;5050908;28;20226;-70
2022/01/11 01:53:57;;;;;;;118.37;53.87;;;-1.20;99.90;;;;;;5033243;28;20192;-69
2022/01/11 01:56:23;;;;;;;112.37;53.80;;;-1.30;99.90;;;;;;5050959;28;20207;-69
2022/01/11 01:58:50;;;;;;;124.67;55.43;;;-1.30;99.90;;;;;;5048732;28;20807;-68
2022/01/11 02:01:16;;;;;;;124.13;54.23;;;-1.20;99.90;;;;;;5049180;28;20593;-68
2022/01/11 02:03:44;;;;;;;118.47;55.13;;;-1.20;99.90;;;;;;5030626;28;20207;-68
2022/01/11 02:06:14;;;;;;;113.37;52.43;;;-1.10;99.90;;;;;;5051369;28;20211;-68
2022/01/11 02:08:40;;;;;;;115.53;52.90;;;-1.10;99.90;;;;;;5049872;28;20216;-68
2022/01/11 02:11:06;;;;;;;114.17;53.03;;;-1.10;99.90;;;;;;5050933;28;20207;-68
2022/01/11 02:13:32;;;;;;;119.27;53.80;;;-1.10;99.90;;;;;;5050408;28;20222;-68
2022/01/11 02:15:58;;;;;;;113.23;51.13;;;-1.00;99.90;;;;;;5050827;28;20214;-69
2022/01/11 02:18:26;;;;;;;107.37;51.13;;;-1.00;99.90;;;;;;5050146;28;20249;-69
2022/01/11 02:20:57;;;;;;;118.47;52.53;;;-1.10;99.90;;;;;;5051234;28;20167;-68
2022/01/11 02:23:23;;;;;;;115.13;51.63;;;-1.10;99.90;;;;;;5050274;28;20212;-68
2022/01/11 02:25:49;;;;;;;115.67;52.37;;;-1.20;99.90;;;;;;5050525;28;20226;-67
2022/01/11 02:28:19;;;;;;;111.90;50.77;;;-1.10;99.90;;;;;;5032886;28;20305;-68
2022/01/11 02:30:45;;;;;;;109.37;50.37;;;-1.20;99.90;;;;;;5032917;28;20222;-68
2022/01/11 02:33:23;;;;;;;111.87;49.63;;;-1.20;99.90;;;;;;5051015;28;20191;-68
2022/01/11 02:35:50;;;;;;;111.17;51.03;;;-1.40;99.90;;;;;;5050424;28;20195;-69
2022/01/11 02:38:15;;;;;;;109.90;48.50;;;-1.40;99.90;;;;;;5050115;28;20216;-68
2022/01/11 02:40:42;;;;;;;107.33;46.13;;;-1.20;99.90;;;;;;5050254;28;20686;-68
2022/01/11 02:43:08;;;;;;;115.90;49.70;;;-1.10;99.90;;;;;;5050481;28;20219;-70
2022/01/11 02:45:33;;;;;;;108.33;47.57;;;-1.30;99.90;;;;;;5050106;28;20201;-68
2022/01/11 02:47:59;;;;;;;106.10;46.63;;;-1.50;99.90;;;;;;5033191;28;20187;-68
2022/01/11 02:50:25;;;;;;;107.00;45.50;;;-1.50;99.90;;;;;;5055268;28;20229;-69
2022/01/11 02:52:51;;;;;;;111.33;47.63;;;-1.50;99.90;;;;;;5060521;28;20207;-70
2022/01/11 02:55:17;;;;;;;110.73;48.50;;;-1.50;99.90;;;;;;5060252;28;20695;-68
2022/01/11 02:57:43;;;;;;;107.63;47.90;;;-1.50;99.90;;;;;;5053985;28;20204;-67
2022/01/11 03:00:15;;;;;;;109.27;46.83;;;-1.40;99.90;;;;;;5054680;28;20199;-69
2022/01/11 03:02:41;;;;;;;109.17;46.40;;;-1.40;99.90;;;;;;5036044;28;20273;-68
2022/01/11 03:05:10;;;;;;;121.97;49.37;;;-1.30;99.90;;;;;;5036258;28;20227;-68
2022/01/11 03:07:35;;;;;;;113.43;51.50;;;-1.40;99.90;;;;;;5056509;28;20214;-69
2022/01/11 03:10:08;;;;;;;122.13;49.97;;;-1.30;99.90;;;;;;5053731;28;20199;-67
2022/01/11 03:12:34;;;;;;;111.53;48.20;;;-1.20;99.90;;;;;;5036029;28;20184;-69
2022/01/11 03:14:59;;;;;;;121.27;52.13;;;-1.20;99.90;;;;;;5036221;28;20194;-68
2022/01/11 03:17:26;;;;;;;117.27;49.20;;;-1.30;99.90;;;;;;5053817;28;20203;-68
2022/01/11 03:19:53;;;;;;;108.67;48.37;;;-1.20;99.90;;;;;;5053202;28;20258;-68
2022/01/11 03:22:20;;;;;;;116.00;48.57;;;-1.10;99.90;;;;;;5036006;28;20214;-68
2022/01/11 03:24:45;;;;;;;115.03;46.03;;;-1.20;99.90;;;;;;5053043;28;20277;-68
2022/01/11 03:27:11;;;;;;;127.40;47.17;;;-1.20;99.90;;;;;;5036437;28;20187;-68
2022/01/11 03:29:38;;;;;;;115.87;43.13;;;-1.10;99.90;;;;;;5035151;28;20285;-67
2022/01/11 03:32:04;;;;;;;108.37;43.77;;;-1.20;99.90;;;;;;5049461;28;20226;-68
2022/01/11 03:34:30;;;;;;;107.93;45.07;;;-1.20;99.90;;;;;;5052890;28;20215;-68
2022/01/11 03:36:57;;;;;;;112.23;42.60;;;-1.40;99.90;;;;;;5035646;28;20203;-70
2022/01/11 03:39:24;;;;;;;112.97;43.03;;;-1.30;99.90;;;;;;5052523;28;20263;-67
2022/01/11 03:41:49;;;;;;;100.60;41.30;;;-1.30;99.90;;;;;;5035909;28;20287;-68
2022/01/11 03:44:15;;;;;;;104.77;41.87;;;-1.20;99.90;;;;;;5052889;28;20303;-68
2022/01/11 03:46:40;;;;;;;98.73;40.60;;;-1.10;99.90;;;;;;5053057;28;20204;-68
2022/01/11 03:49:06;;;;;;;90.33;39.00;;;-1.10;99.90;;;;;;5052519;28;20276;-69
2022/01/11 03:51:35;;;;;;;105.10;41.30;;;-1.20;99.90;;;;;;5035092;28;20175;-68
2022/01/11 03:54:10;;;;;;;106.10;40.30;;;-1.10;99.90;;;;;;5053172;28;20184;-68
2022/01/11 03:56:36;;;;;;;98.30;39.17;;;-1.30;99.90;;;;;;5052975;28;20214;-69
2022/01/11 03:59:06;;;;;;;100.80;39.10;;;-1.40;99.90;;;;;;5052568;28;20208;-68
2022/01/11 04:01:33;;;;;;;97.23;38.43;;;-1.50;99.90;;;;;;5034418;28;20257;-68
2022/01/11 04:03:58;;;;;;;98.23;39.20;;;-1.50;99.90;;;;;;5034477;28;20204;-68
2022/01/11 04:06:26;;;;;;;96.80;39.27;;;-1.40;99.90;;;;;;5052685;28;20705;-69
2022/01/11 04:08:52;;;;;;;90.93;38.77;;;-1.40;99.90;;;;;;5052895;28;20165;-67
2022/01/11 04:11:17;;;;;;;88.03;34.97;;;-1.30;99.90;;;;;;5053172;28;20692;-68
2022/01/11 04:13:43;;;;;;;98.63;38.70;;;-1.40;99.90;;;;;;5052311;28;20291;-68
2022/01/11 04:16:09;;;;;;;108.03;38.10;;;-1.40;99.90;;;;;;5034772;28;20233;-68
2022/01/11 04:18:35;;;;;;;102.73;39.50;;;-1.40;99.90;;;;;;5052020;28;20184;-69
2022/01/11 04:21:00;;;;;;;100.80;37.47;;;-1.40;99.90;;;;;;5052954;28;20257;-68
2022/01/11 04:23:27;;;;;;;95.37;37.03;;;-1.30;99.90;;;;;;5034153;28;20212;-67
2022/01/11 04:25:52;;;;;;;95.93;39.10;;;-1.30;99.90;;;;;;5052346;28;20593;-67
2022/01/11 04:28:18;;;;;;;95.90;36.17;;;-1.30;99.90;;;;;;5034203;28;20208;-68
2022/01/11 04:30:43;;;;;;;90.10;36.73;;;-1.20;99.90;;;;;;5052161;28;20198;-68
2022/01/11 04:33:09;;;;;;;87.67;36.10;;;-1.10;99.90;;;;;;5052161;28;20180;-68
2022/01/11 04:35:35;;;;;;;94.40;35.30;;;-1.10;99.90;;;;;;5052065;28;20218;-68
2022/01/11 04:38:01;;;;;;;97.37;37.20;;;-1.10;99.90;;;;;;5033890;28;20235;-68
2022/01/11 04:40:26;;;;;;;89.57;34.23;;;-1.10;99.90;;;;;;5051952;28;20265;-68
2022/01/11 04:42:52;;;;;;;76.47;30.73;;;-1.10;99.90;;;;;;5052182;28;20555;-67
2022/01/11 04:45:17;;;;;;;85.20;35.37;;;-1.20;99.90;;;;;;5052418;28;20229;-68
2022/01/11 04:47:47;;;;;;;86.00;34.90;;;-1.20;99.90;;;;;;5051523;28;20198;-67
2022/01/11 04:50:13;;;;;;;97.83;36.87;;;-1.10;99.90;;;;;;5034016;28;20707;-68
2022/01/11 04:52:39;;;;;;;89.80;34.20;;;-1.20;99.90;;;;;;5051753;28;20208;-68
2022/01/11 04:55:06;;;;;;;88.87;35.50;;;-1.10;99.90;;;;;;5051646;28;20626;-68
2022/01/11 04:57:32;;;;;;;94.00;36.23;;;-1.00;99.90;;;;;;5051810;28;20223;-68
2022/01/11 04:59:57;;;;;;;91.13;35.87;;;-1.10;99.90;;;;;;5051979;28;20172;-68
2022/01/11 05:02:24;;;;;;;93.97;36.80;;;-1.10;99.90;;;;;;5051232;28;20691;-68
2022/01/11 05:04:50;;;;;;;91.10;35.00;;;-1.10;99.90;;;;;;5051283;28;20207;-69
2022/01/11 05:07:15;;;;;;;94.00;35.27;;;-1.00;99.90;;;;;;5051731;28;20284;-68
2022/01/11 05:09:41;;;;;;;97.77;35.93;;;-1.00;99.90;;;;;;5050945;28;20213;-68
2022/01/11 05:12:07;;;;;;;84.83;34.57;;;-1.00;99.90;;;;;;5034202;28;20189;-68
2022/01/11 05:14:33;;;;;;;85.87;34.40;;;-1.00;99.90;;;;;;5051085;28;20570;-68
2022/01/11 05:16:58;;;;;;;89.37;34.23;;;-1.00;99.90;;;;;;5033820;28;20217;-67
2022/01/11 05:19:24;;;;;;;82.17;32.77;;;-1.00;99.90;;;;;;5033020;28;20594;-68
2022/01/11 05:21:49;;;;;;;89.20;33.43;;;-0.90;99.90;;;;;;5051529;28;20237;-68
2022/01/11 05:24:15;;;;;;;87.87;32.23;;;-1.00;99.90;;;;;;5052658;28;20294;-67
2022/01/11 05:26:40;;;;;;;85.27;33.47;;;-1.10;99.90;;;;;;5051292;28;20220;-68
2022/01/11 05:29:05;;;;;;;87.63;35.60;;;-1.00;99.90;;;;;;5050881;28;20222;-68
2022/01/11 05:31:33;;;;;;;85.97;33.93;;;-1.00;99.90;;;;;;5050961;28;20278;-68
2022/01/11 05:33:59;;;;;;;88.03;34.07;;;-1.00;99.90;;;;;;5048775;28;20207;-68
2022/01/11 05:36:24;;;;;;;86.53;34.77;;;-1.00;99.90;;;;;;5050805;28;20259;-69
2022/01/11 05:38:51;;;;;;;82.53;32.87;;;-1.10;99.90;;;;;;5051046;28;20186;-68
2022/01/11 05:41:16;;;;;;;88.60;32.27;;;-1.10;99.90;;;;;;5051103;28;20211;-69
2022/01/11 05:43:42;;;;;;;76.87;32.70;;;-1.20;99.90;;;;;;5050754;28;20223;-68
2022/01/11 05:46:07;;;;;;;86.97;32.97;;;-1.10;99.90;;;;;;5050805;28;20334;-69
2022/01/11 05:48:33;;;;;;;85.20;31.77;;;-1.00;99.90;;;;;;5050304;28;20637;-69
2022/01/11 05:50:59;;;;;;;89.57;34.53;;;-1.00;99.90;;;;;;5031575;28;20680;-68
2022/01/11 05:53:25;;;;;;;87.97;32.67;;;-0.90;99.90;;;;;;5032894;28;20223;-67
2022/01/11 05:55:50;;;;;;;92.20;34.70;;;-0.90;99.90;;;;;;5032969;28;20603;-67
2022/01/11 05:58:16;;;;;;;85.53;33.87;;;-0.90;99.90;;;;;;5050714;28;20259;-69
2022/01/11 06:00:41;;;;;;;91.57;34.73;;;-1.00;99.90;;;;;;5050760;28;20211;-68
2022/01/11 06:03:07;;;;;;;80.47;33.20;;;-1.00;99.90;;;;;;5051167;28;20199;-68
2022/01/11 06:05:37;;;;;;;79.83;32.07;;;-0.90;99.90;;;;;;5050364;28;20637;-68
2022/01/11 06:08:03;;;;;;;86.33;31.43;;;-0.90;99.90;;;;;;5032624;28;20209;-68
2022/01/11 06:10:29;;;;;;;73.10;30.63;;;-0.90;99.90;;;;;;5050481;28;20218;-68
2022/01/11 06:12:54;;;;;;;81.97;31.27;;;-0.80;99.90;;;;;;5050834;28;20259;-68
2022/01/11 06:15:20;;;;;;;74.77;30.30;;;-0.80;99.90;;;;;;5050951;28;20218;-68
2022/01/11 06:17:45;;;;;;;74.83;30.13;;;-0.80;99.90;;;;;;5050592;28;20246;-68
2022/01/11 06:20:11;;;;;;;83.30;32.87;;;-0.80;99.90;;;;;;5032392;28;20259;-68
2022/01/11 06:22:37;;;;;;;78.03;31.57;;;-0.80;99.90;;;;;;5051383;28;20307;-68
2022/01/11 06:25:03;;;;;;;74.17;30.40;;;-0.70;99.90;;;;;;5056590;28;20242;-68
2022/01/11 06:27:29;;;;;;;78.60;32.73;;;-0.70;99.90;;;;;;5041513;28;20235;-67
2022/01/11 06:29:55;;;;;;;81.50;31.87;;;-0.70;99.90;;;;;;5039238;28;20264;-68
2022/01/11 06:32:20;;;;;;;77.00;31.20;;;-0.60;99.90;;;;;;5039325;28;20291;-68
2022/01/11 06:34:46;;;;;;;75.17;30.03;;;-0.60;99.90;;;;;;5038844;28;20286;-69
2022/01/11 06:37:12;;;;;;;72.47;28.53;;;-0.70;99.90;;;;;;5057195;28;20230;-68
2022/01/11 06:39:38;;;;;;;76.33;30.30;;;-0.70;99.90;;;;;;5038445;28;20181;-68
2022/01/11 06:42:04;;;;;;;76.83;29.07;;;-0.70;99.90;;;;;;5039694;28;20179;-69
2022/01/11 06:44:31;;;;;;;69.80;28.20;;;-0.90;99.90;;;;;;5056573;28;20203;-68
2022/01/11 06:46:56;;;;;;;64.93;28.07;;;-0.90;99.90;;;;;;5057132;28;20745;-67
2022/01/11 06:49:22;;;;;;;73.13;29.60;;;-1.00;99.90;;;;;;5056439;28;20291;-68
2022/01/11 06:51:47;;;;;;;66.83;26.87;;;-1.00;99.90;;;;;;5061157;28;20351;-69
2022/01/11 06:54:13;;;;;;;67.90;27.43;;;-1.10;99.90;;;;;;5048690;28;20206;-68
2022/01/11 06:56:39;;;;;;;62.33;26.23;;;-1.10;99.90;;;;;;5063667;28;20302;-68
2022/01/11 06:59:05;;;;;;;63.37;25.97;;;-1.10;99.90;;;;;;5056647;28;20223;-68
2022/01/11 07:01:30;;;;;;;63.27;27.07;;;-1.30;99.90;;;;;;5056615;28;20297;-68
2022/01/11 07:03:56;;;;;;;65.93;27.13;;;-1.40;99.90;;;;;;5056527;28;20215;-68
2022/01/11 07:06:21;;;;;;;67.17;28.50;;;-1.40;99.90;;;;;;5056799;28;20249;-68
2022/01/11 07:08:47;;;;;;;69.27;29.23;;;-1.20;99.90;;;;;;5038651;28;20636;-68
2022/01/11 07:11:13;;;;;;;67.20;28.47;;;-1.10;99.90;;;;;;5039001;28;20212;-68
2022/01/11 07:13:38;;;;;;;64.90;26.90;;;-1.10;99.90;;;;;;5056606;28;20277;-68
2022/01/11 07:16:04;;;;;;;73.90;28.87;;;-1.00;99.90;;;;;;5038731;28;20203;-68
2022/01/11 07:18:29;;;;;;;70.53;29.37;;;-0.90;99.90;;;;;;5056176;28;20269;-69
2022/01/11 07:20:55;;;;;;;70.30;27.07;;;-0.90;99.90;;;;;;5039173;28;20179;-68
2022/01/11 07:23:20;;;;;;;66.97;27.37;;;-1.00;99.90;;;;;;5038534;28;20692;-68
2022/01/11 07:25:46;;;;;;;64.53;29.03;;;-1.10;99.90;;;;;;5056476;28;20303;-67
2022/01/11 07:28:14;;;;;;;69.33;29.30;;;-1.10;99.90;;;;;;5056258;28;20219;-68
2022/01/11 07:30:39;;;;;;;68.87;28.17;;;-1.10;99.90;;;;;;5038218;28;20183;-67
2022/01/11 07:33:06;;;;;;;67.83;27.97;;;-1.10;99.90;;;;;;5056688;28;20206;-67
2022/01/11 07:35:31;;;;;;;61.00;26.37;;;-1.00;99.90;;;;;;5053867;28;20632;-68
2022/01/11 07:37:57;;;;;;;57.40;26.63;;;-1.00;99.90;;;;;;5053203;28;20229;-68
2022/01/11 07:40:22;;;;;;;66.43;26.97;;;-1.00;99.90;;;;;;5053152;28;20216;-68
2022/01/11 07:42:49;;;;;;;58.20;25.53;;;-0.90;99.90;;;;;;5053352;28;20241;-68
2022/01/11 07:45:14;;;;;;;57.70;25.13;;;-1.10;99.90;;;;;;5053439;28;20233;-68
2022/01/11 07:47:40;;;;;;;60.50;25.00;;;-1.20;99.90;;;;;;5035234;28;20304;-68
2022/01/11 07:50:06;;;;;;;56.37;23.50;;;-1.30;99.90;;;;;;5052732;28;20298;-68
2022/01/11 07:52:32;;;;;;;68.90;26.90;;;-1.40;99.90;;;;;;5035264;28;20222;-69
2022/01/11 07:54:58;;;;;;;55.60;23.20;;;-1.30;99.90;;;;;;5052751;28;20208;-69
2022/01/11 07:57:24;;;;;;;59.27;26.97;;;-1.30;99.90;;;;;;5035091;28;20184;-70
2022/01/11 07:59:49;;;;;;;62.40;25.53;;;-1.30;99.90;;;;;;5034918;28;20445;-68
2022/01/11 08:02:15;;;;;;;59.93;25.03;;;-1.20;99.90;;;;;;5052974;28;20207;-68
2022/01/11 08:04:41;;;;;;;60.63;25.33;;;-1.30;99.90;;;;;;5052427;28;20221;-69
2022/01/11 08:07:06;;;;;;;58.33;25.50;;;-1.20;99.90;;;;;;5035078;28;20218;-68
2022/01/11 08:09:32;;;;;;;67.90;27.00;;;-1.30;99.90;;;;;;5052134;28;20184;-68
2022/01/11 08:11:58;;;;;;;65.17;27.27;;;-1.30;99.90;;;;;;5053665;28;20183;-69
2022/01/11 08:14:34;;;;;;;57.13;24.93;;;-1.10;99.90;;;;;;5034683;28;20211;-69
2022/01/11 08:16:59;;;;;;;63.07;26.83;;;-1.10;99.90;;;;;;5035898;28;20227;-68
2022/01/11 08:19:25;;;;;;;63.00;26.30;;;-1.00;99.90;;;;;;5052322;28;20238;-69
2022/01/11 08:21:55;;;;;;;53.97;24.30;;;-1.00;99.90;;;;;;5053374;28;20613;-69
2022/01/11 08:24:22;;;;;;;60.40;25.90;;;-1.00;99.90;;;;;;5052768;28;20597;-68
2022/01/11 08:26:49;;;;;;;68.23;25.73;;;-1.00;99.90;;;;;;5053497;28;20186;-69
2022/01/11 08:29:14;;;;;;;62.20;25.83;;;-1.00;99.90;;;;;;5052551;28;20219;-71
2022/01/11 08:31:40;;;;;;;57.60;25.13;;;-1.10;99.90;;;;;;5053456;28;20207;-68
2022/01/11 08:34:11;;;;;;;59.57;24.47;;;-1.20;99.90;;;;;;5053176;28;20250;-68
2022/01/11 08:36:40;;;;;;;57.03;24.93;;;-1.10;99.90;;;;;;5053563;28;20190;-69
2022/01/11 08:39:06;;;;;;;53.50;23.07;;;-1.10;99.90;;;;;;5053607;28;20263;-69
2022/01/11 08:41:31;;;;;;;55.60;24.73;;;-1.10;99.90;;;;;;5052891;28;20677;-69
2022/01/11 08:43:57;;;;;;;55.33;23.07;;;-1.10;99.90;;;;;;5053116;28;20235;-69
2022/01/11 08:46:22;;;;;;;63.83;26.80;;;-1.10;99.90;;;;;;5051725;28;20229;-68
2022/01/11 08:48:48;;;;;;;63.80;24.40;;;-1.10;99.90;;;;;;5051957;28;20284;-69
2022/01/11 08:51:14;;;;;;;62.23;24.73;;;-1.10;99.90;;;;;;5052475;28;20648;-68
2022/01/11 08:53:40;;;;;;;57.10;24.77;;;-1.00;99.90;;;;;;5052347;28;20699;-68
2022/01/11 08:56:05;;;;;;;51.80;21.90;;;-1.00;99.90;;;;;;5052189;28;20215;-68
2022/01/11 08:58:31;;;;;;;50.13;23.87;;;-1.00;99.90;;;;;;5051397;28;20217;-69
2022/01/11 09:00:57;;;;;;;51.93;22.33;;;-1.00;99.90;;;;;;5052281;28;20248;-68
2022/01/11 09:03:23;;;;;;;53.13;22.87;;;-0.90;99.90;;;;;;5033948;28;20211;-68
2022/01/11 09:05:50;;;;;;;47.53;22.63;;;-0.90;99.90;;;;;;5052512;28;20246;-69
2022/01/11 09:08:16;;;;;;;63.03;26.73;;;-0.80;99.90;;;;;;5051805;28;20206;-69
2022/01/11 09:10:41;;;;;;;53.77;23.67;;;-0.70;99.90;;;;;;5051558;28;20726;-69
2022/01/11 09:13:07;;;;;;;52.80;24.10;;;-0.70;99.90;;;;;;5051608;28;20200;-68
2022/01/11 09:15:33;;;;;;;50.13;22.27;;;-0.50;99.90;;;;;;5051380;28;20187;-68
2022/01/11 09:17:59;;;;;;;60.40;25.03;;;-0.40;99.90;;;;;;5051972;28;20169;-69
2022/01/11 09:20:24;;;;;;;54.37;22.70;;;-0.50;99.90;;;;;;5050987;28;20875;-68
2022/01/11 09:22:50;;;;;;;58.43;24.23;;;-0.50;99.90;;;;;;5051644;28;20272;-70
2022/01/11 09:25:16;;;;;;;59.13;24.03;;;-0.40;99.90;;;;;;5050862;28;20219;-68
2022/01/11 09:27:43;;;;;;;52.77;24.90;;;-0.40;99.90;;;;;;5051063;28;20306;-68
2022/01/11 09:30:10;;;;;;;54.23;22.70;;;-0.40;99.90;;;;;;5051581;28;20176;-68
2022/01/11 09:32:37;;;;;;;45.77;21.10;;;-0.40;99.90;;;;;;5051103;28;20208;-69
2022/01/11 09:35:05;;;;;;;50.03;22.80;;;-0.40;99.90;;;;;;5050654;28;20212;-67
2022/01/11 09:37:30;;;;;;;49.33;23.13;;;-0.40;99.90;;;;;;5051172;28;20706;-68
2022/01/11 09:39:56;;;;;;;50.03;22.47;;;-0.40;99.90;;;;;;5050455;28;20209;-69
2022/01/11 09:42:22;;;;;;;50.37;22.93;;;-0.40;99.90;;;;;;5051118;28;20185;-69
2022/01/11 09:44:47;;;;;;;53.50;23.60;;;-0.30;99.90;;;;;;5050982;28;20734;-68
2022/01/11 09:47:13;;;;;;;51.27;22.97;;;-0.40;99.90;;;;;;5051433;28;20215;-68
2022/01/11 09:49:41;;;;;;;50.57;20.90;;;-0.50;99.90;;;;;;5050269;28;20219;-68
2022/01/11 09:52:08;;;;;;;47.20;21.27;;;-0.50;99.90;;;;;;5050924;28;20214;-69
2022/01/11 09:54:36;;;;;;;42.90;22.23;;;-0.40;99.90;;;;;;5050378;28;20210;-68
2022/01/11 09:57:02;;;;;;;54.20;22.83;;;-0.30;99.90;;;;;;5051504;28;20174;-69
2022/01/11 09:59:27;;;;;;;48.43;21.60;;;-0.20;99.90;;;;;;5049726;28;20693;-68
2022/01/11 10:01:53;;;;;;;48.77;21.70;;;-0.30;99.90;;;;;;5051109;28;20247;-69
2022/01/11 10:04:25;;;;;;;52.50;21.90;;;-0.40;99.90;;;;;;5050594;28;20592;-68
2022/01/11 10:07:00;;;;;;;51.57;22.37;;;-0.50;99.90;;;;;;5051018;28;20203;-68
2022/01/11 10:09:28;;;;;;;46.37;21.37;;;-0.50;99.90;;;;;;5050452;28;20213;-70
2022/01/11 10:11:59;;;;;;;48.53;21.57;;;-0.40;99.90;;;;;;5051438;28;20177;-70
2022/01/11 10:14:33;;;;;;;49.03;22.93;;;-0.40;99.90;;;;;;5032532;28;20290;-69
2022/01/11 10:17:20;;;;;;;49.50;23.03;;;-0.50;99.90;;;;;;5050795;28;20214;-69
2022/01/11 10:19:49;;;;;;;47.17;21.07;;;-0.40;99.90;;;;;;5050036;28;20203;-70
2022/01/11 10:22:18;;;;;;;55.93;23.10;;;-0.60;99.90;;;;;;5050603;28;20208;-69
2022/01/11 10:24:45;;;;;;;51.70;22.60;;;-0.60;99.90;;;;;;5050058;28;20227;-69
2022/01/11 10:27:18;;;;;;;52.97;22.40;;;-0.60;99.90;;;;;;5051920;28;20213;-69
2022/01/11 10:29:59;;;;;;;47.73;22.20;;;-0.40;99.90;;;;;;5051109;28;20208;-69
2022/01/11 10:32:35;;;;;;;45.80;20.40;;;-0.20;99.90;;;;;;5032750;28;20695;-69
2022/01/11 10:35:14;;;;;;;48.87;21.97;;;0.00;99.90;;;;;;5050357;28;20208;-69
2022/01/11 10:37:48;;;;;;;45.07;20.87;;;0.00;99.90;;;;;;5050575;28;20209;-68
2022/01/11 10:40:26;;;;;;;44.57;20.33;;;0.00;99.90;;;;;;5050510;28;20786;-68
2022/01/11 10:42:58;;;;;;;46.47;21.00;;;0.00;99.90;;;;;;5060880;28;20204;-69
2022/01/11 10:45:30;;;;;;;45.57;21.43;;;0.10;99.90;;;;;;5059948;28;20222;-69
2022/01/11 10:47:58;;;;;;;49.33;21.37;;;0.10;99.90;;;;;;5051254;28;20255;-68
2022/01/11 10:50:28;;;;;;;47.20;21.60;;;0.10;99.90;;;;;;5050337;28;20230;-69
2022/01/11 10:52:58;;;;;;;44.97;21.60;;;0.00;99.90;;;;;;5050530;28;20208;-69
2022/01/11 10:55:27;;;;;;;45.60;21.10;;;-0.10;99.90;;;;;;5049800;28;20233;-68
2022/01/11 10:57:58;;;;;;;45.37;22.10;;;-0.10;99.90;;;;;;5050072;28;20297;-68
2022/01/11 11:00:35;;;;;;;53.43;23.63;;;-0.10;99.90;;;;;;5050099;28;20656;-69
2022/01/11 11:03:05;;;;;;;45.63;20.77;;;0.00;99.90;;;;;;5050915;28;20189;-69
2022/01/11 11:05:40;;;;;;;43.97;21.13;;;-0.10;99.90;;;;;;5049547;28;20309;-68
2022/01/11 11:08:12;;;;;;;43.93;19.53;;;-0.20;99.90;;;;;;5049970;28;20299;-70
2022/01/11 11:10:44;;;;;;;46.77;21.97;;;-0.10;99.90;;;;;;5053372;28;20222;-69
2022/01/11 11:13:18;;;;;;;44.97;20.43;;;-0.10;99.90;;;;;;5054065;28;20209;-69
2022/01/11 11:15:43;;;;;;;42.70;19.83;;;-0.20;99.90;;;;;;5053408;28;20230;-69
2022/01/11 11:18:24;;;;;;;45.87;20.07;;;-0.20;99.90;;;;;;5054363;28;20176;-69
2022/01/11 11:20:50;;;;;;;48.10;22.37;;;-0.20;99.90;;;;;;5046338;28;20290;-69
2022/01/11 11:23:17;;;;;;;42.67;20.50;;;-0.20;99.90;;;;;;5038459;28;20231;-68
2022/01/11 11:25:43;;;;;;;41.00;21.50;;;-0.20;99.90;;;;;;5036774;28;20287;-69
2022/01/11 11:28:08;;;;;;;49.37;21.63;;;-0.10;99.90;;;;;;5053444;28;20234;-67
2022/01/11 11:30:34;;;;;;;43.30;21.10;;;-0.10;99.90;;;;;;5053161;28;20633;-68
2022/01/11 11:33:00;;;;;;;43.10;20.27;;;0.00;99.90;;;;;;5054162;28;20176;-69
2022/01/11 11:35:26;;;;;;;45.27;20.00;;;0.10;99.90;;;;;;5053096;28;20219;-69
2022/01/11 11:37:56;;;;;;;39.13;19.03;;;0.10;99.90;;;;;;5053575;28;20710;-68
2022/01/11 11:40:26;;;;;;;40.93;19.50;;;-0.20;99.90;;;;;;5053329;28;20227;-68
2022/01/11 11:42:55;;;;;;;47.83;21.63;;;-0.20;99.90;;;;;;5035648;28;20226;-69
2022/01/11 11:45:31;;;;;;;45.90;21.20;;;-0.20;99.90;;;;;;5052772;28;20291;-68
2022/01/11 11:48:11;;;;;;;45.83;22.13;;;-0.10;99.90;;;;;;5053960;28;20534;-68
2022/01/11 11:50:55;;;;;;;48.73;21.80;;;-0.10;99.90;;;;;;5052762;28;20682;-69
2022/01/11 11:53:24;;;;;;;46.50;21.77;;;0.00;99.90;;;;;;5035083;28;20209;-71
2022/01/11 11:55:49;;;;;;;45.53;22.50;;;0.00;99.90;;;;;;5027711;28;20680;-69
2022/01/11 11:58:21;;;;;;;49.27;22.73;;;0.00;99.90;;;;;;5053209;28;20216;-69
2022/01/11 12:00:46;;;;;;;46.20;22.10;;;0.00;99.90;;;;;;5044331;28;20209;-69
2022/01/11 12:03:25;;;;;;;45.73;22.37;;;0.10;99.90;;;;;;5053193;28;20176;-70
2022/01/11 12:05:53;;;;;;;52.40;23.03;;;0.20;99.90;;;;;;5052740;28;20698;-70
2022/01/11 12:08:35;;;;;;;50.23;24.03;;;0.20;99.90;;;;;;5052619;28;20703;-70
2022/01/11 12:11:10;;;;;;;54.77;26.03;;;0.20;99.90;;;;;;5052839;28;20210;-70
2022/01/11 12:13:51;;;;;;;44.57;21.97;;;0.30;99.90;;;;;;5052797;28;20215;-70
2022/01/11 12:16:25;;;;;;;42.20;21.67;;;0.20;99.90;;;;;;5052749;28;20285;-70
2022/01/11 12:18:59;;;;;;;44.83;21.00;;;0.30;99.90;;;;;;5052333;28;20205;-69
2022/01/11 12:21:28;;;;;;;48.13;22.77;;;0.20;99.90;;;;;;5051248;28;20187;-70
2022/01/11 12:23:56;;;;;;;46.30;22.63;;;0.40;99.90;;;;;;5052677;28;20213;-70
2022/01/11 12:26:25;;;;;;;50.77;23.33;;;0.30;99.90;;;;;;5052357;28;20724;-70
2022/01/11 12:29:03;;;;;;;48.30;22.27;;;0.50;99.90;;;;;;5052097;28;20210;-70